Time;durP1;ratioP1;P1;durP2;ratioP2;P2;SDS_P1;SDS_P2;PMS_P1;PMS_P2;Temp;Humidity;BMP_temperature;BMP_pressure;BME280_temperature;BME280_humidity;BME280_pressure;Samples;Min_cycle;Max_cycle;Signal;HPM_P1;HPM_P2
2023/09/08 00:00:40;;;;;;;7.70;5.07;;;;;;;14.86;100.00;97500.06;5021813;28;20038;-61
2023/09/08 00:03:07;;;;;;;7.68;5.07;;;;;;;14.58;100.00;97494.09;5022084;28;20437;-61
2023/09/08 00:05:33;;;;;;;7.45;5.28;;;;;;;14.42;100.00;97496.81;5005044;28;20052;-59
2023/09/08 00:08:00;;;;;;;8.15;5.35;;;;;;;14.25;100.00;97504.47;5022408;28;20558;-61
2023/09/08 00:10:26;;;;;;;8.00;5.18;;;;;;;14.31;100.00;97501.47;5022666;28;20033;-61
2023/09/08 00:12:53;;;;;;;12.10;6.07;;;;;;;14.29;100.00;97508.28;5021387;28;20049;-61
2023/09/08 00:15:20;;;;;;;10.60;5.70;;;;;;;14.35;100.00;97501.75;5027759;28;20143;-59
2023/09/08 00:17:47;;;;;;;8.32;5.38;;;;;;;14.44;100.00;97494.66;5025931;28;20420;-59
2023/09/08 00:20:15;;;;;;;7.28;4.63;;;;;;;14.62;100.00;97500.63;5025776;28;20050;-59
2023/09/08 00:22:41;;;;;;;8.45;5.00;;;;;;;14.69;100.00;97497.59;5026092;28;20045;-59
2023/09/08 00:25:08;;;;;;;8.52;5.80;;;;;;;14.74;100.00;97500.31;5025234;28;20128;-59
2023/09/08 00:27:35;;;;;;;9.02;5.43;;;;;;;14.51;100.00;97497.09;5032330;28;20049;-61
2023/09/08 00:30:02;;;;;;;6.78;4.82;;;;;;;14.52;100.00;97497.94;5027426;28;20740;-61
2023/09/08 00:32:29;;;;;;;10.80;5.07;;;;;;;14.46;100.00;97497.13;5026186;28;20108;-61
2023/09/08 00:34:55;;;;;;;8.95;5.57;;;;;;;14.36;100.00;97491.66;5026961;28;20064;-60
2023/09/08 00:37:22;;;;;;;8.45;5.00;;;;;;;14.40;100.00;97501.75;5021464;28;20044;-59
2023/09/08 00:39:48;;;;;;;7.70;5.13;;;;;;;14.46;100.00;97499.00;5025720;28;20038;-59
2023/09/08 00:42:15;;;;;;;7.22;5.13;;;;;;;14.48;100.00;97500.38;5008857;28;20042;-60
2023/09/08 00:44:41;;;;;;;7.93;5.22;;;;;;;14.48;100.00;97499.56;5026411;28;20132;-61
2023/09/08 00:47:08;;;;;;;7.60;5.10;;;;;;;14.62;100.00;97499.78;5024539;28;20516;-60
2023/09/08 00:49:35;;;;;;;6.60;5.00;;;;;;;14.78;100.00;97495.19;5026230;28;20049;-61
2023/09/08 00:52:01;;;;;;;7.80;5.00;;;;;;;14.79;100.00;97500.34;5020955;28;20065;-58
2023/09/08 00:54:28;;;;;;;7.65;4.97;;;;;;;14.81;100.00;97495.44;5016405;28;20543;-58
2023/09/08 00:56:58;;;;;;;7.53;5.07;;;;;;;14.66;100.00;97490.81;5025771;28;20053;-61
2023/09/08 00:59:25;;;;;;;6.50;4.43;;;;;;;14.49;100.00;97495.75;5023897;28;20045;-62
2023/09/08 01:01:52;;;;;;;7.47;4.70;;;;;;;14.37;100.00;97490.59;5023725;28;20447;-61
2023/09/08 01:04:20;;;;;;;7.28;4.95;;;;;;;14.25;100.00;97490.84;5025280;28;20037;-60
2023/09/08 01:06:47;;;;;;;6.72;4.80;;;;;;;14.19;100.00;97490.03;5026152;28;20049;-59
2023/09/08 01:09:14;;;;;;;8.88;5.20;;;;;;;14.15;100.00;97489.78;5023907;28;20063;-61
2023/09/08 01:11:41;;;;;;;7.72;5.20;;;;;;;14.20;100.00;97490.84;5023472;28;20064;-61
2023/09/08 01:14:08;;;;;;;10.50;5.40;;;;;;;14.17;100.00;97490.31;5025689;28;20037;-61
2023/09/08 01:16:35;;;;;;;8.38;5.13;;;;;;;14.21;100.00;97487.03;5023918;28;20115;-61
2023/09/08 01:19:04;;;;;;;9.63;5.68;;;;;;;13.87;100.00;97485.69;5023699;28;20044;-61
2023/09/08 01:21:53;;;;;;;8.45;5.85;;;;;;;13.57;100.00;97476.38;5026835;28;20049;-62
2023/09/08 01:24:51;;;;;;;7.88;5.50;;;;;;;13.26;100.00;97488.78;5027984;28;20040;-62
2023/09/08 01:27:18;;;;;;;9.20;5.97;;;;;;;13.36;100.00;97481.72;5027055;28;20678;-62
2023/09/08 01:29:47;;;;;;;7.47;5.53;;;;;;;13.47;100.00;97483.41;5024071;28;20510;-62
2023/09/08 01:32:14;;;;;;;11.02;5.95;;;;;;;13.44;100.00;97492.09;4992807;28;20155;-62
2023/09/08 01:34:41;;;;;;;10.27;5.93;;;;;;;13.43;100.00;97485.03;5016232;28;20048;-62
2023/09/08 01:37:07;;;;;;;8.00;5.53;;;;;;;13.53;100.00;97482.34;5027398;28;20053;-62
2023/09/08 01:39:34;;;;;;;8.55;5.90;;;;;;;13.64;100.00;97485.91;5023790;28;20612;-62
2023/09/08 01:42:00;;;;;;;8.57;5.60;;;;;;;13.85;100.00;97479.66;5023269;28;20037;-62
2023/09/08 01:44:27;;;;;;;9.25;5.80;;;;;;;13.77;100.00;97479.13;5025460;28;20045;-62
2023/09/08 01:46:56;;;;;;;8.35;5.85;;;;;;;13.62;100.00;97476.38;5028615;28;20049;-62
2023/09/08 01:49:24;;;;;;;8.52;5.53;;;;;;;13.56;100.00;97483.72;5012901;28;20152;-61
2023/09/08 01:51:50;;;;;;;8.43;5.72;;;;;;;13.36;100.00;97482.56;5019459;28;20037;-61
2023/09/08 01:54:17;;;;;;;8.13;5.75;;;;;;;13.21;100.00;97477.88;5023399;28;20116;-61
2023/09/08 01:56:43;;;;;;;7.85;5.78;;;;;;;13.11;100.00;97478.66;5027400;28;20042;-62
2023/09/08 01:59:10;;;;;;;9.85;5.95;;;;;;;12.97;100.00;97477.53;5022803;28;20654;-62
2023/09/08 02:01:37;;;;;;;8.07;5.93;;;;;;;12.87;100.00;97481.81;5021896;28;20041;-62
2023/09/08 02:04:04;;;;;;;8.38;6.18;;;;;;;12.86;100.00;97480.19;5025673;28;20945;-62
2023/09/08 02:06:30;;;;;;;10.10;5.93;;;;;;;12.75;100.00;97487.47;5025548;28;20067;-62
2023/09/08 02:08:57;;;;;;;10.63;6.10;;;;;;;12.78;100.00;97482.59;5004183;28;20165;-62
2023/09/08 02:11:24;;;;;;;8.68;5.28;;;;;;;12.79;100.00;97487.75;5020686;28;20057;-62
2023/09/08 02:13:52;;;;;;;9.05;6.10;;;;;;;12.83;100.00;97480.69;5023624;28;20126;-62
2023/09/08 02:16:19;;;;;;;10.20;6.45;;;;;;;12.81;100.00;97484.75;5022616;28;20041;-61
2023/09/08 02:18:50;;;;;;;8.80;6.22;;;;;;;12.81;100.00;97490.19;4993317;28;20444;-62
2023/09/08 02:21:16;;;;;;;9.55;5.80;;;;;;;12.82;100.00;97487.22;4984673;28;21092;-62
2023/09/08 02:23:43;;;;;;;10.07;5.60;;;;;;;12.80;100.00;97488.56;4985723;28;20049;-62
2023/09/08 02:26:10;;;;;;;9.55;5.70;;;;;;;12.87;100.00;97487.25;5009551;28;20041;-62
2023/09/08 02:28:37;;;;;;;7.78;5.47;;;;;;;12.90;100.00;97483.19;5020768;28;20139;-62
2023/09/08 02:31:04;;;;;;;8.35;5.10;;;;;;;12.80;100.00;97483.97;5023982;28;20120;-62
2023/09/08 02:33:31;;;;;;;8.25;5.70;;;;;;;12.59;100.00;97474.88;5021061;28;20049;-62
2023/09/08 02:36:05;;;;;;;8.38;5.43;;;;;;;12.64;100.00;97480.31;5022754;28;20443;-61
2023/09/08 02:38:33;;;;;;;8.02;5.45;;;;;;;12.58;100.00;97473.25;5020686;28;20053;-62
2023/09/08 02:41:01;;;;;;;13.23;6.20;;;;;;;12.48;100.00;97476.72;5027067;28;20550;-61
2023/09/08 02:43:28;;;;;;;8.57;5.70;;;;;;;12.50;100.00;97469.13;5023001;28;20034;-61
2023/09/08 02:45:56;;;;;;;7.70;5.68;;;;;;;12.53;100.00;97482.16;5021270;28;20467;-61
2023/09/08 02:48:24;;;;;;;7.50;5.30;;;;;;;12.57;100.00;97477.03;5036608;28;20041;-62
2023/09/08 02:50:53;;;;;;;8.80;5.47;;;;;;;12.61;100.00;97475.44;5021891;28;20075;-62
2023/09/08 02:53:20;;;;;;;8.57;6.00;;;;;;;12.65;100.00;97481.16;5019593;28;20103;-61
2023/09/08 02:55:46;;;;;;;9.13;5.38;;;;;;;12.57;100.00;97477.03;5024082;28;20049;-61
2023/09/08 02:58:13;;;;;;;8.77;5.90;;;;;;;12.35;100.00;97483.41;5023620;28;20102;-61
2023/09/08 03:00:40;;;;;;;8.52;5.85;;;;;;;12.20;100.00;97489.56;5028107;28;20037;-61
2023/09/08 03:03:07;;;;;;;8.20;5.50;;;;;;;12.14;100.00;97491.41;5021457;28;20041;-61
2023/09/08 03:05:34;;;;;;;7.82;5.68;;;;;;;12.39;100.00;97486.44;5021559;28;20500;-62
2023/09/08 03:08:01;;;;;;;11.05;6.85;;;;;;;12.46;100.00;97484.31;5021285;28;20042;-62
2023/09/08 03:10:28;;;;;;;10.82;6.22;;;;;;;12.55;100.00;97477.31;5021029;28;20044;-62
2023/09/08 03:12:56;;;;;;;8.27;5.70;;;;;;;12.74;100.00;97471.41;5058870;28;20038;-62
2023/09/08 03:15:22;;;;;;;7.80;5.80;;;;;;;12.71;100.00;97471.94;5026267;28;20103;-61
2023/09/08 03:17:49;;;;;;;8.70;5.78;;;;;;;12.61;100.00;97476.25;5020476;28;20045;-62
2023/09/08 03:20:16;;;;;;;10.93;6.18;;;;;;;12.55;100.00;97471.88;5022644;28;20518;-62
2023/09/08 03:22:42;;;;;;;11.82;6.32;;;;;;;12.56;100.00;97472.66;5021799;28;20045;-62
2023/09/08 03:25:09;;;;;;;12.13;6.25;;;;;;;12.75;100.00;97473.88;5024082;28;20038;-62
2023/09/08 03:27:36;;;;;;;9.38;5.35;;;;;;;12.93;100.00;97468.28;5024997;28;20132;-62
2023/09/08 03:30:04;;;;;;;9.90;5.88;;;;;;;12.99;100.00;97472.63;5020103;28;20684;-61
2023/09/08 03:32:31;;;;;;;9.38;5.72;;;;;;;13.05;100.00;97465.31;5025042;28;20049;-61
2023/09/08 03:34:58;;;;;;;8.23;5.43;;;;;;;12.80;100.00;97472.28;5027188;28;20143;-61
2023/09/08 03:37:26;;;;;;;8.77;5.93;;;;;;;12.64;100.00;97469.47;5024049;28;20042;-62
2023/09/08 03:39:53;;;;;;;8.88;6.20;;;;;;;12.40;100.00;97475.31;5021168;28;20058;-62
2023/09/08 03:42:20;;;;;;;11.00;6.40;;;;;;;12.42;100.00;97478.56;5019804;28;20076;-62
2023/09/08 03:44:46;;;;;;;10.05;6.22;;;;;;;12.34;100.00;97473.63;5025178;28;20037;-62
2023/09/08 03:47:13;;;;;;;9.48;6.32;;;;;;;12.21;100.00;97474.91;5010600;28;20069;-62
2023/09/08 03:49:39;;;;;;;9.45;6.72;;;;;;;12.23;100.00;97483.59;5024329;28;20601;-62
2023/09/08 03:52:06;;;;;;;8.68;6.03;;;;;;;12.27;100.00;97481.19;5030412;28;20065;-62
2023/09/08 03:54:32;;;;;;;9.32;5.88;;;;;;;12.30;100.00;97475.22;5025516;28;20037;-62
2023/09/08 03:57:02;;;;;;;12.30;5.60;;;;;;;12.40;100.00;97475.31;5027766;28;20610;-62
2023/09/08 03:59:28;;;;;;;8.75;5.70;;;;;;;12.23;100.00;97470.00;5028836;28;20045;-62
2023/09/08 04:01:55;;;;;;;8.38;5.80;;;;;;;12.01;100.00;97479.03;5022819;28;20135;-61
2023/09/08 04:04:22;;;;;;;8.88;6.03;;;;;;;11.90;100.00;97490.91;5024103;28;20600;-61
2023/09/08 04:06:48;;;;;;;8.02;5.93;;;;;;;11.82;100.00;97500.31;5027241;28;20038;-62
2023/09/08 04:09:15;;;;;;;12.40;7.32;;;;;;;11.89;100.00;97498.22;5025832;28;20401;-61
2023/09/08 04:11:42;;;;;;;9.45;6.78;;;;;;;11.90;100.00;97509.91;5024800;28;20060;-62
2023/09/08 04:14:08;;;;;;;9.65;6.65;;;;;;;11.95;100.00;97501.81;5024897;28;20056;-61
2023/09/08 04:16:35;;;;;;;8.13;5.82;;;;;;;11.99;100.00;97502.09;5025397;28;20045;-62
2023/09/08 04:19:02;;;;;;;8.80;6.28;;;;;;;11.88;100.00;97501.19;5026756;28;20492;-61
2023/09/08 04:21:28;;;;;;;8.52;5.93;;;;;;;11.80;100.00;97497.06;5026050;28;20049;-62
2023/09/08 04:23:55;;;;;;;9.73;6.50;;;;;;;11.78;100.00;97499.19;5025316;28;20129;-62
2023/09/08 04:26:22;;;;;;;10.35;6.47;;;;;;;11.82;100.00;97495.72;5024018;28;20115;-62
2023/09/08 04:28:49;;;;;;;12.43;7.00;;;;;;;11.78;100.00;97494.59;5028311;28;20045;-61
2023/09/08 04:31:17;;;;;;;8.38;6.35;;;;;;;11.80;100.00;97497.84;5021864;28;20052;-62
2023/09/08 04:33:44;;;;;;;12.63;7.07;;;;;;;11.77;100.00;97503.81;5024427;28;20040;-62
2023/09/08 04:36:13;;;;;;;8.70;6.45;;;;;;;11.77;100.00;97502.97;5051135;28;20456;-62
2023/09/08 04:38:41;;;;;;;9.23;6.43;;;;;;;11.76;100.00;97504.06;5022631;28;20037;-62
2023/09/08 04:41:09;;;;;;;9.70;6.47;;;;;;;11.70;100.00;97511.31;5021474;28;20134;-61
2023/09/08 04:43:36;;;;;;;11.68;7.07;;;;;;;11.75;100.00;97514.09;5022457;28;20045;-62
2023/09/08 04:46:03;;;;;;;10.73;6.30;;;;;;;11.76;100.00;97512.19;5019312;28;20052;-62
2023/09/08 04:48:30;;;;;;;8.52;7.05;;;;;;;11.84;100.00;97517.16;5021105;28;20045;-61
2023/09/08 04:50:57;;;;;;;11.18;6.22;;;;;;;11.94;100.00;97513.75;5026592;28;20479;-61
2023/09/08 04:53:24;;;;;;;9.80;5.97;;;;;;;12.06;100.00;97505.44;5024702;28;20052;-61
2023/09/08 04:55:52;;;;;;;10.10;6.72;;;;;;;12.22;100.00;97504.50;5020449;28;20472;-62
2023/09/08 04:58:18;;;;;;;9.48;5.95;;;;;;;12.35;100.00;97497.00;5020322;28;20053;-62
2023/09/08 05:00:45;;;;;;;10.15;6.13;;;;;;;12.46;100.00;97500.59;5021759;28;20095;-61
2023/09/08 05:03:12;;;;;;;10.90;6.60;;;;;;;12.46;100.00;97500.59;5026374;28;20072;-61
2023/09/08 05:05:39;;;;;;;10.27;6.38;;;;;;;12.54;100.00;97493.84;5022755;28;20103;-61
2023/09/08 05:08:06;;;;;;;8.32;6.03;;;;;;;12.60;100.00;97504.50;5022369;28;20041;-61
2023/09/08 05:10:32;;;;;;;9.18;6.38;;;;;;;12.60;100.00;97498.22;5007571;28;20057;-61
2023/09/08 05:12:59;;;;;;;10.30;6.03;;;;;;;12.66;100.00;97502.63;5027818;28;20487;-61
2023/09/08 05:15:26;;;;;;;12.45;6.85;;;;;;;12.69;100.00;97499.41;5019656;28;20110;-61
2023/09/08 05:17:54;;;;;;;8.75;6.05;;;;;;;12.63;100.00;97503.16;5020924;28;20164;-61
2023/09/08 05:20:21;;;;;;;13.32;6.43;;;;;;;12.59;100.00;97502.03;5020535;28;20505;-62
2023/09/08 05:22:49;;;;;;;10.18;7.20;;;;;;;12.55;100.00;97507.19;5021649;28;20073;-62
2023/09/08 05:25:16;;;;;;;11.65;6.55;;;;;;;12.59;100.00;97508.28;5021729;28;20470;-61
2023/09/08 05:27:45;;;;;;;11.27;6.65;;;;;;;12.54;100.00;97510.97;5021436;28;20159;-61
2023/09/08 05:30:12;;;;;;;9.38;6.53;;;;;;;12.56;100.00;97514.25;5021937;28;20132;-62
2023/09/08 05:32:40;;;;;;;10.18;6.60;;;;;;;12.63;100.00;97516.72;5020296;28;20049;-61
2023/09/08 05:35:08;;;;;;;11.63;7.13;;;;;;;12.67;100.00;97515.13;5021298;28;20492;-61
2023/09/08 05:37:34;;;;;;;12.02;7.15;;;;;;;12.66;100.00;97510.78;5020413;28;20045;-62
2023/09/08 05:40:03;;;;;;;9.77;6.45;;;;;;;12.66;100.00;97509.94;5020439;28;20053;-62
2023/09/08 05:42:30;;;;;;;9.98;6.55;;;;;;;12.70;100.00;97520.03;5006542;28;20048;-62
2023/09/08 05:44:57;;;;;;;11.55;7.25;;;;;;;12.76;100.00;97523.63;5021831;28;20045;-62
2023/09/08 05:47:23;;;;;;;10.82;7.18;;;;;;;12.86;100.00;97523.66;5020632;28;20046;-62
2023/09/08 05:49:51;;;;;;;10.00;7.05;;;;;;;13.00;100.00;97526.72;5021275;28;20516;-61
2023/09/08 05:52:17;;;;;;;12.98;8.20;;;;;;;13.14;100.00;97521.63;5021884;28;20041;-61
2023/09/08 05:54:45;;;;;;;14.18;8.15;;;;;;;13.23;100.00;97521.94;5021736;28;20037;-62
2023/09/08 05:57:12;;;;;;;11.00;7.82;;;;;;;13.35;100.00;97518.97;5020130;28;20048;-61
2023/09/08 05:59:38;;;;;;;12.57;7.20;;;;;;;13.52;100.00;97526.97;5021198;28;21076;-61
2023/09/08 06:02:05;;;;;;;10.75;7.32;;;;;;;13.61;100.00;97521.84;5021938;28;20046;-61
2023/09/08 06:04:32;;;;;;;9.70;7.57;;;;;;;13.71;100.00;97510.13;5021081;28;20056;-61
2023/09/08 06:07:00;;;;;;;12.48;8.02;;;;;;;13.83;100.00;97514.53;5020728;28;20546;-61
2023/09/08 06:09:27;;;;;;;13.13;7.28;;;;;;;13.96;100.00;97508.53;5019303;28;20411;-61
2023/09/08 06:11:53;;;;;;;11.80;7.25;;;;;;;14.08;100.00;97512.91;5021495;28;20508;-62
2023/09/08 06:14:20;;;;;;;10.30;6.82;;;;;;;14.19;100.00;97509.09;5020774;28;20137;-62
2023/09/08 06:16:48;;;;;;;11.45;7.50;;;;;;;14.40;100.00;97512.63;5021025;28;20060;-61
2023/09/08 06:19:16;;;;;;;10.18;7.43;;;;;;;14.61;100.00;97511.78;5021611;28;21027;-61
2023/09/08 06:21:43;;;;;;;10.50;6.63;;;;;;;14.77;100.00;97507.97;5019585;28;20048;-62
2023/09/08 06:24:10;;;;;;;11.48;7.82;;;;;;;14.91;100.00;97507.41;5022877;28;20125;-61
2023/09/08 06:26:38;;;;;;;11.77;7.15;;;;;;;15.09;100.00;97497.81;5023636;28;20049;-61
2023/09/08 06:29:05;;;;;;;12.95;6.95;;;;;;;15.20;100.00;97499.41;5022242;28;20100;-62
2023/09/08 06:31:32;;;;;;;10.52;7.30;;;;;;;15.35;100.00;97503.16;5025779;28;20045;-62
2023/09/08 06:33:58;;;;;;;10.57;6.82;;;;;;;15.58;100.00;97503.56;5053137;28;20132;-61
2023/09/08 06:36:25;;;;;;;10.77;7.35;;;;;;;15.83;100.00;97507.25;5020320;28;20041;-62
2023/09/08 06:38:52;;;;;;;10.38;6.22;;;;;;;15.94;100.00;97500.66;5022162;28;20681;-62
2023/09/08 06:41:19;;;;;;;10.98;6.95;;;;;;;16.09;100.00;97496.16;5019591;28;20076;-62
2023/09/08 06:43:46;;;;;;;10.48;6.10;;;;;;;16.21;100.00;97504.81;5021764;28;20102;-61
2023/09/08 06:46:18;;;;;;;12.15;6.88;;;;;;;16.36;100.00;97501.13;5022457;28;20099;-62
2023/09/08 06:48:47;;;;;;;9.30;6.72;;;;;;;16.52;100.00;97498.28;5016966;28;20088;-61
2023/09/08 06:51:14;;;;;;;12.15;6.38;;;;;;;16.75;100.00;97499.41;5019177;28;20068;-61
2023/09/08 06:53:43;;;;;;;8.77;6.20;;;;;;;16.95;100.00;97497.53;5019211;28;20061;-61
2023/09/08 06:56:09;;;;;;;9.95;7.30;;;;;;;17.22;100.00;97501.66;5037141;28;20043;-62
2023/09/08 06:58:37;;;;;;;8.65;6.40;;;;;;;17.40;100.00;97507.47;5017701;28;20081;-62
2023/09/08 07:01:03;;;;;;;8.30;6.45;;;;;;;17.58;100.00;97510.50;5019989;28;20107;-62
2023/09/08 07:03:36;;;;;;;8.93;6.25;;;;;;;17.67;100.00;97506.00;5022565;28;20064;-61
2023/09/08 07:06:05;;;;;;;8.52;5.82;;;;;;;17.83;100.00;97506.59;5018663;28;20042;-62
2023/09/08 07:08:32;;;;;;;7.38;4.63;;;;;;;17.86;100.00;97511.47;5020077;28;20060;-61
2023/09/08 07:10:59;;;;;;;8.50;6.05;;;;;;;17.91;100.00;97513.34;5018128;28;20042;-62
2023/09/08 07:13:26;;;;;;;9.38;6.13;;;;;;;17.96;100.00;97516.00;5023543;28;20057;-62
2023/09/08 07:15:53;;;;;;;11.20;6.13;;;;;;;18.04;100.00;97509.84;5024419;28;20035;-62
2023/09/08 07:18:20;;;;;;;7.97;5.70;;;;;;;18.09;100.00;97511.69;5019653;28;20045;-62
2023/09/08 07:20:48;;;;;;;7.40;5.15;;;;;;;18.15;100.00;97510.53;5018737;28;20136;-62
2023/09/08 07:23:18;;;;;;;7.78;5.50;;;;;;;18.24;100.00;97512.59;5018401;28;20654;-62
2023/09/08 07:25:49;;;;;;;6.88;5.15;;;;;;;18.31;100.00;97516.56;5019429;28;20037;-62
2023/09/08 07:28:19;;;;;;;6.43;4.95;;;;;;;18.42;100.00;97514.47;5021864;28;20528;-62
2023/09/08 07:30:50;;;;;;;7.80;5.60;;;;;;;18.53;99.96;97511.53;5019764;28;20049;-62
2023/09/08 07:33:17;;;;;;;7.95;5.38;;;;;;;18.64;99.88;97515.72;5019106;28;20050;-61
2023/09/08 07:35:44;;;;;;;10.02;5.95;;;;;;;18.89;99.32;97512.81;5018815;28;20030;-62
2023/09/08 07:38:10;;;;;;;8.70;5.78;;;;;;;19.09;96.74;97512.47;5020583;28;20101;-62
2023/09/08 07:40:37;;;;;;;7.57;5.35;;;;;;;19.17;95.75;97510.94;5019049;28;20057;-62
2023/09/08 07:43:05;;;;;;;7.80;5.57;;;;;;;19.34;94.71;97513.06;5049848;28;20049;-62
2023/09/08 07:45:32;;;;;;;6.97;5.72;;;;;;;19.50;95.05;97519.03;5019927;28;20069;-62
2023/09/08 07:47:58;;;;;;;9.00;5.85;;;;;;;19.57;95.08;97512.34;5021822;28;20091;-62
2023/09/08 07:50:27;;;;;;;6.57;4.90;;;;;;;19.60;93.71;97519.94;5020828;28;20076;-62
2023/09/08 07:52:55;;;;;;;7.53;5.50;;;;;;;19.71;95.03;97520.53;5018923;28;20049;-62
2023/09/08 07:55:23;;;;;;;7.40;5.55;;;;;;;19.79;93.84;97519.78;5017505;28;20103;-61
2023/09/08 07:57:51;;;;;;;9.82;5.82;;;;;;;19.82;92.52;97515.59;5020683;28;20038;-62
2023/09/08 08:00:18;;;;;;;7.00;4.55;;;;;;;19.87;92.46;97521.81;5019384;28;20109;-62
2023/09/08 08:02:54;;;;;;;7.90;4.78;;;;;;;19.92;92.70;97514.56;5020563;28;20041;-62
2023/09/08 08:05:21;;;;;;;7.75;5.20;;;;;;;19.95;91.70;97519.47;5020648;28;20045;-62
2023/09/08 08:07:48;;;;;;;9.48;5.35;;;;;;;19.99;92.38;97515.81;5024442;28;20095;-61
2023/09/08 08:10:15;;;;;;;6.53;4.60;;;;;;;20.02;91.34;97508.88;5020367;28;20099;-62
2023/09/08 08:12:43;;;;;;;6.30;4.88;;;;;;;20.20;91.75;97509.81;5021794;28;20396;-62
2023/09/08 08:15:10;;;;;;;6.72;4.18;;;;;;;20.31;91.12;97510.38;5021086;28;20111;-62
2023/09/08 08:17:38;;;;;;;7.10;4.72;;;;;;;20.44;90.20;97514.19;5020595;28;20540;-62
2023/09/08 08:20:07;;;;;;;7.50;5.95;;;;;;;20.53;89.98;97509.56;5017503;28;20512;-62
2023/09/08 08:22:33;;;;;;;8.75;5.53;;;;;;;20.60;88.46;97511.06;5019865;28;20052;-62
2023/09/08 08:25:00;;;;;;;7.03;5.18;;;;;;;20.66;87.73;97509.78;5019450;28;20038;-62
2023/09/08 08:27:27;;;;;;;7.80;5.20;;;;;;;20.76;87.82;97511.47;5019985;28;20052;-62
2023/09/08 08:29:54;;;;;;;7.03;5.25;;;;;;;20.88;87.20;97516.41;5019855;28;20045;-62
2023/09/08 08:32:20;;;;;;;8.25;5.28;;;;;;;21.14;88.16;97513.75;5021945;28;20045;-62
2023/09/08 08:34:47;;;;;;;11.23;5.60;;;;;;;21.28;87.16;97515.59;5021573;28;20045;-62
2023/09/08 08:37:14;;;;;;;7.20;4.25;;;;;;;21.28;84.63;97507.31;5022824;28;20084;-62
2023/09/08 08:39:41;;;;;;;10.35;6.25;;;;;;;21.38;84.40;97506.22;5021393;28;21660;-62
2023/09/08 08:42:09;;;;;;;6.47;5.10;;;;;;;21.39;83.68;97505.09;5023661;28;20045;-62
2023/09/08 08:44:40;;;;;;;8.05;4.70;;;;;;;21.45;83.25;97506.56;5023022;28;20045;-62
2023/09/08 08:47:08;;;;;;;7.65;4.88;;;;;;;21.52;83.64;97509.63;5023827;28;20129;-62
2023/09/08 08:49:36;;;;;;;7.07;5.00;;;;;;;21.57;82.36;97509.47;5022613;28;20532;-62
2023/09/08 08:52:07;;;;;;;6.35;5.05;;;;;;;21.66;83.43;97505.94;5023403;28;20088;-62
2023/09/08 08:54:38;;;;;;;9.77;5.30;;;;;;;21.73;82.65;97513.75;5022289;28;20045;-62
2023/09/08 08:57:06;;;;;;;10.20;6.35;;;;;;;21.86;83.97;97506.47;5022820;28;20461;-62
2023/09/08 08:59:33;;;;;;;8.57;6.45;;;;;;;21.94;83.02;97509.25;5022508;28;20053;-62
2023/09/08 09:02:02;;;;;;;7.72;5.32;;;;;;;22.00;82.00;97515.38;5023349;28;20156;-62
2023/09/08 09:04:29;;;;;;;8.82;6.18;;;;;;;22.02;80.80;97504.88;5023405;28;20636;-62
2023/09/08 09:06:57;;;;;;;10.35;7.32;;;;;;;22.09;81.80;97507.94;5025164;28;20124;-63
2023/09/08 09:09:25;;;;;;;7.90;6.07;;;;;;;22.14;80.02;97506.97;5025302;28;20049;-63
2023/09/08 09:11:51;;;;;;;8.43;6.15;;;;;;;22.39;81.29;97507.25;5026542;28;20099;-63
2023/09/08 09:14:18;;;;;;;8.65;6.22;;;;;;;22.45;80.21;97500.44;5024783;28;20042;-63
2023/09/08 09:16:47;;;;;;;9.20;5.53;;;;;;;22.48;80.46;97507.22;5024364;28;20060;-63
2023/09/08 09:19:25;;;;;;;8.93;6.65;;;;;;;22.61;80.76;97508.22;5024715;28;20042;-63
2023/09/08 09:21:54;;;;;;;10.50;6.60;;;;;;;22.75;79.67;97510.78;5021497;28;20068;-63
2023/09/08 09:24:36;;;;;;;8.70;5.53;;;;;;;22.80;78.59;97516.13;5022093;28;20408;-63
2023/09/08 09:27:05;;;;;;;8.80;5.82;;;;;;;22.88;78.36;97516.44;5023487;28;20614;-62
2023/09/08 09:29:34;;;;;;;8.23;5.82;;;;;;;22.91;78.84;97508.28;5022596;28;20041;-62
2023/09/08 09:32:08;;;;;;;8.80;5.75;;;;;;;22.94;78.94;97510.41;5023125;28;20045;-62
2023/09/08 09:34:35;;;;;;;8.50;5.95;;;;;;;23.07;79.11;97518.81;5023848;28;20049;-62
2023/09/08 09:37:05;;;;;;;9.48;5.60;;;;;;;23.20;78.05;97516.94;5021770;28;20043;-62
2023/09/08 09:39:31;;;;;;;6.55;5.15;;;;;;;23.23;77.43;97514.34;5022703;28;20049;-62
2023/09/08 09:41:59;;;;;;;7.40;5.55;;;;;;;23.36;77.97;97512.50;5023022;28;20049;-61
2023/09/08 09:44:25;;;;;;;10.98;6.85;;;;;;;23.44;77.70;97513.59;5024593;28;20550;-62
2023/09/08 09:46:53;;;;;;;8.88;5.85;;;;;;;23.52;77.79;97514.69;5023458;28;20037;-62
2023/09/08 09:49:20;;;;;;;7.68;5.32;;;;;;;23.56;76.27;97512.88;5022393;28;20052;-62
2023/09/08 09:51:49;;;;;;;7.32;5.15;;;;;;;23.58;76.53;97516.09;5021580;28;20041;-62
2023/09/08 09:54:16;;;;;;;7.15;5.32;;;;;;;23.66;75.87;97521.94;5022237;28;20512;-62
2023/09/08 09:56:43;;;;;;;8.40;5.88;;;;;;;23.60;75.75;97511.06;5021063;28;20041;-63
2023/09/08 09:59:13;;;;;;;7.32;5.43;;;;;;;23.58;75.14;97509.78;5022471;28;20070;-61
2023/09/08 10:01:42;;;;;;;8.23;5.38;;;;;;;23.65;75.54;97512.81;5021129;28;20053;-63
2023/09/08 10:04:09;;;;;;;7.70;5.82;;;;;;;23.68;75.78;97506.63;5019955;28;20124;-62
2023/09/08 10:06:38;;;;;;;9.55;5.70;;;;;;;23.67;75.55;97516.06;5022186;28;20463;-61
2023/09/08 10:09:13;;;;;;;10.27;6.35;;;;;;;23.74;75.59;97510.78;5024677;28;20052;-61
2023/09/08 10:11:46;;;;;;;8.95;6.72;;;;;;;23.82;75.41;97506.38;5020790;28;20124;-62
2023/09/08 10:14:15;;;;;;;11.02;6.15;;;;;;;23.87;74.72;97508.94;5019852;28;20056;-61
2023/09/08 10:16:45;;;;;;;9.45;6.05;;;;;;;23.86;74.67;97506.50;5020771;28;20041;-61
2023/09/08 10:19:12;;;;;;;7.60;6.03;;;;;;;24.02;74.05;97503.91;5022851;28;20034;-60
2023/09/08 10:21:50;;;;;;;6.78;5.97;;;;;;;24.04;74.60;97499.66;5021891;28;20063;-62
2023/09/08 10:24:27;;;;;;;6.95;5.53;;;;;;;24.03;73.68;97495.28;5022747;28;20105;-63
2023/09/08 10:27:04;;;;;;;9.88;5.80;;;;;;;24.18;73.38;97501.41;5023197;28;20661;-62
2023/09/08 10:29:32;;;;;;;8.35;6.45;;;;;;;24.22;73.14;97504.28;5020557;28;20049;-62
2023/09/08 10:32:00;;;;;;;12.30;6.15;;;;;;;24.27;73.48;97496.59;5023092;28;20148;-63
2023/09/08 10:34:28;;;;;;;8.13;5.78;;;;;;;24.26;73.19;97497.75;5023673;28;20504;-64
2023/09/08 10:36:55;;;;;;;14.15;6.50;;;;;;;24.40;72.57;97493.88;5019955;28;20044;-64
2023/09/08 10:39:30;;;;;;;10.13;5.80;;;;;;;24.49;72.59;97491.81;5020606;28;20045;-62
2023/09/08 10:42:21;;;;;;;8.50;6.05;;;;;;;24.55;72.48;97493.19;5022884;28;20556;-62
2023/09/08 10:44:50;;;;;;;7.95;5.90;;;;;;;24.59;72.21;97493.34;5020397;28;20072;-62
2023/09/08 10:47:31;;;;;;;8.50;6.93;;;;;;;24.60;71.03;97494.94;5024623;28;20316;-62
2023/09/08 10:50:00;;;;;;;9.77;6.88;;;;;;;24.63;71.27;97487.91;5005722;28;20083;-63
2023/09/08 10:52:26;;;;;;;7.53;6.18;;;;;;;24.69;71.05;97481.00;5023221;28;20164;-62
2023/09/08 10:54:55;;;;;;;10.40;6.72;;;;;;;24.73;70.88;97500.53;5021529;28;20060;-62
2023/09/08 10:57:24;;;;;;;7.68;6.03;;;;;;;24.67;71.35;97483.31;5021671;28;20041;-62
2023/09/08 11:00:10;;;;;;;9.52;5.82;;;;;;;24.72;71.82;97488.63;5019702;28;20034;-61
2023/09/08 11:02:41;;;;;;;8.20;5.95;;;;;;;24.74;71.05;97493.81;5021144;28;20056;-63
2023/09/08 11:05:15;;;;;;;8.02;6.07;;;;;;;24.84;71.66;97487.03;5024041;28;20069;-63
2023/09/08 11:07:44;;;;;;;8.48;5.95;;;;;;;24.81;73.86;97491.31;5024278;28;20115;-63
2023/09/08 11:10:12;;;;;;;13.40;6.35;;;;;;;24.81;72.51;97489.31;5020966;28;20068;-62
2023/09/08 11:12:39;;;;;;;7.55;6.07;;;;;;;24.83;70.95;97485.44;5021180;28;20116;-63
2023/09/08 11:15:08;;;;;;;8.50;5.72;;;;;;;24.94;70.55;97489.38;5018996;28;20067;-63
2023/09/08 11:17:39;;;;;;;7.80;6.30;;;;;;;24.99;71.16;97483.59;5021342;28;20046;-63
2023/09/08 11:20:09;;;;;;;8.20;5.93;;;;;;;25.02;71.34;97490.44;5024734;28;20047;-62
2023/09/08 11:22:38;;;;;;;9.15;6.13;;;;;;;24.93;70.88;97482.22;5010018;28;20156;-63
2023/09/08 11:25:10;;;;;;;7.35;5.63;;;;;;;24.97;73.52;97485.09;4996970;28;21781;-63
2023/09/08 11:27:39;;;;;;;7.70;5.80;;;;;;;24.96;72.14;97487.09;5019753;28;20056;-62
2023/09/08 11:30:07;;;;;;;9.93;5.75;;;;;;;24.99;73.83;97480.03;5029696;28;20040;-62